Decoded Metar for UUYY (SYKTYVKAR in RUSSIA) (IATA:SCW) | Meteo·Mobile Aviation Weather
aviador You're here:

UUYY Decoded Metar

SYKTYVKAR in RUSSIA
Report Time2019-12-15 21:00:00
UTC Time2019-12-15 21:25:45
Flight Rules mvfr MVFR
Wind160° at 8 kt
W.Decomp.*RWY 19: 5.6 kt HW 5.8 kt LCW
Visibility9999 m
Phenomena:N/A
Clouds:Broken 029 Hf
Expected CloudBase > 800 ft AGL from Temp-Dew spread
Ceiling2,900 ft
Temp-4°C (ISA -18)
Dew Point-6°C (86% RH)
AAT-9.6°C
QNH1019 hPa
Density Alt-2,005 ft
Elevation390 ft
Report Wrong Elevation
Raw Report
METAR UUYY 152100Z 16004MPS 9999 BKN029 M04/M06 Q1019 R18/420245
NOSIG RMK QFE756/1008=####018001252####
SAKZ31 UUUJ 152100

Extra information for UUYY:More info

Metar Taf Metar & Taf Last 4 Metars F.Rules Stats Wind Profile Meteogram Temp Stats Airport Information Weather charts Add Link Nearby VenuesMetar ALERT Operation Metar Decoded Social comments